sensor_id;sensor_type;location;lat;lon;timestamp;P1;durP1;ratioP1;P2;durP2;ratioP2
22634;SDS011;11484;50.858;4.384;2023-06-22T00:02:15;4.20;;;3.28;;
22634;SDS011;11484;50.858;4.384;2023-06-22T00:04:41;4.95;;;3.38;;
22634;SDS011;11484;50.858;4.384;2023-06-22T00:07:06;6.05;;;3.30;;
22634;SDS011;11484;50.858;4.384;2023-06-22T00:09:33;4.28;;;2.97;;
22634;SDS011;11484;50.858;4.384;2023-06-22T00:11:59;5.88;;;3.28;;
22634;SDS011;11484;50.858;4.384;2023-06-22T00:14:24;5.05;;;2.90;;
22634;SDS011;11484;50.858;4.384;2023-06-22T00:16:50;4.80;;;2.97;;
22634;SDS011;11484;50.858;4.384;2023-06-22T00:19:22;5.93;;;3.45;;
22634;SDS011;11484;50.858;4.384;2023-06-22T00:21:48;4.57;;;2.85;;
22634;SDS011;11484;50.858;4.384;2023-06-22T00:24:18;4.55;;;2.83;;
22634;SDS011;11484;50.858;4.384;2023-06-22T00:26:50;5.10;;;3.33;;
22634;SDS011;11484;50.858;4.384;2023-06-22T00:29:16;4.55;;;2.75;;
22634;SDS011;11484;50.858;4.384;2023-06-22T00:31:42;5.75;;;3.08;;
22634;SDS011;11484;50.858;4.384;2023-06-22T00:34:08;5.80;;;3.38;;
22634;SDS011;11484;50.858;4.384;2023-06-22T00:36:34;6.38;;;3.60;;
22634;SDS011;11484;50.858;4.384;2023-06-22T00:39:00;5.45;;;3.65;;
22634;SDS011;11484;50.858;4.384;2023-06-22T00:41:26;5.57;;;3.17;;
22634;SDS011;11484;50.858;4.384;2023-06-22T00:43:53;5.22;;;3.47;;
22634;SDS011;11484;50.858;4.384;2023-06-22T00:46:19;5.30;;;3.40;;
22634;SDS011;11484;50.858;4.384;2023-06-22T00:48:47;6.43;;;3.75;;
22634;SDS011;11484;50.858;4.384;2023-06-22T00:51:13;5.20;;;3.30;;
22634;SDS011;11484;50.858;4.384;2023-06-22T00:53:39;4.28;;;3.35;;
22634;SDS011;11484;50.858;4.384;2023-06-22T00:56:06;5.55;;;3.53;;
22634;SDS011;11484;50.858;4.384;2023-06-22T00:58:33;6.38;;;3.33;;
22634;SDS011;11484;50.858;4.384;2023-06-22T01:01:01;5.40;;;3.70;;
22634;SDS011;11484;50.858;4.384;2023-06-22T01:03:28;7.32;;;3.88;;
22634;SDS011;11484;50.858;4.384;2023-06-22T01:05:55;6.72;;;4.00;;
22634;SDS011;11484;50.858;4.384;2023-06-22T01:08:51;6.90;;;3.97;;
22634;SDS011;11484;50.858;4.384;2023-06-22T01:11:28;6.40;;;3.55;;
22634;SDS011;11484;50.858;4.384;2023-06-22T01:14:07;5.97;;;3.85;;
22634;SDS011;11484;50.858;4.384;2023-06-22T01:17:05;5.78;;;3.97;;
22634;SDS011;11484;50.858;4.384;2023-06-22T01:19:48;5.43;;;3.47;;
22634;SDS011;11484;50.858;4.384;2023-06-22T01:22:20;5.03;;;3.40;;
22634;SDS011;11484;50.858;4.384;2023-06-22T01:25:00;5.50;;;3.80;;
22634;SDS011;11484;50.858;4.384;2023-06-22T01:27:39;7.47;;;3.85;;
22634;SDS011;11484;50.858;4.384;2023-06-22T01:30:21;6.78;;;4.07;;
22634;SDS011;11484;50.858;4.384;2023-06-22T01:32:47;5.45;;;3.80;;
22634;SDS011;11484;50.858;4.384;2023-06-22T01:35:14;7.40;;;4.55;;
22634;SDS011;11484;50.858;4.384;2023-06-22T01:37:40;7.55;;;4.15;;
22634;SDS011;11484;50.858;4.384;2023-06-22T01:40:06;4.28;;;3.38;;
22634;SDS011;11484;50.858;4.384;2023-06-22T01:42:33;6.47;;;4.10;;
22634;SDS011;11484;50.858;4.384;2023-06-22T01:45:00;5.28;;;3.75;;
22634;SDS011;11484;50.858;4.384;2023-06-22T01:47:26;7.40;;;3.90;;
22634;SDS011;11484;50.858;4.384;2023-06-22T01:49:53;6.90;;;3.95;;
22634;SDS011;11484;50.858;4.384;2023-06-22T01:52:19;6.35;;;4.20;;
22634;SDS011;11484;50.858;4.384;2023-06-22T01:54:48;7.13;;;4.10;;
22634;SDS011;11484;50.858;4.384;2023-06-22T01:57:14;6.72;;;4.03;;
22634;SDS011;11484;50.858;4.384;2023-06-22T01:59:47;7.63;;;4.07;;
22634;SDS011;11484;50.858;4.384;2023-06-22T02:02:31;8.82;;;3.90;;
22634;SDS011;11484;50.858;4.384;2023-06-22T02:05:06;7.22;;;4.25;;
22634;SDS011;11484;50.858;4.384;2023-06-22T02:07:46;8.27;;;4.13;;
22634;SDS011;11484;50.858;4.384;2023-06-22T02:10:18;5.60;;;3.40;;
22634;SDS011;11484;50.858;4.384;2023-06-22T02:12:46;4.88;;;3.33;;
22634;SDS011;11484;50.858;4.384;2023-06-22T02:15:13;5.78;;;3.72;;
22634;SDS011;11484;50.858;4.384;2023-06-22T02:17:40;5.05;;;3.40;;
22634;SDS011;11484;50.858;4.384;2023-06-22T02:20:11;7.13;;;4.10;;
22634;SDS011;11484;50.858;4.384;2023-06-22T02:22:38;5.47;;;3.63;;
22634;SDS011;11484;50.858;4.384;2023-06-22T02:25:04;5.90;;;3.70;;
22634;SDS011;11484;50.858;4.384;2023-06-22T02:27:29;5.72;;;3.40;;
22634;SDS011;11484;50.858;4.384;2023-06-22T02:29:55;7.55;;;3.95;;
22634;SDS011;11484;50.858;4.384;2023-06-22T02:32:21;6.35;;;4.18;;
22634;SDS011;11484;50.858;4.384;2023-06-22T02:34:47;7.63;;;4.10;;
22634;SDS011;11484;50.858;4.384;2023-06-22T02:37:13;7.20;;;4.30;;
22634;SDS011;11484;50.858;4.384;2023-06-22T02:39:40;5.88;;;3.55;;
22634;SDS011;11484;50.858;4.384;2023-06-22T02:42:05;6.10;;;4.03;;
22634;SDS011;11484;50.858;4.384;2023-06-22T02:44:31;5.97;;;4.25;;
22634;SDS011;11484;50.858;4.384;2023-06-22T02:46:57;5.78;;;3.83;;
22634;SDS011;11484;50.858;4.384;2023-06-22T02:49:23;5.50;;;4.00;;
22634;SDS011;11484;50.858;4.384;2023-06-22T02:51:49;6.43;;;4.20;;
22634;SDS011;11484;50.858;4.384;2023-06-22T02:54:15;6.90;;;4.20;;
22634;SDS011;11484;50.858;4.384;2023-06-22T02:56:41;6.32;;;3.75;;
22634;SDS011;11484;50.858;4.384;2023-06-22T02:59:09;7.03;;;4.00;;
22634;SDS011;11484;50.858;4.384;2023-06-22T03:01:36;6.60;;;4.45;;
22634;SDS011;11484;50.858;4.384;2023-06-22T03:04:08;6.60;;;4.22;;
22634;SDS011;11484;50.858;4.384;2023-06-22T03:06:34;7.07;;;4.18;;
22634;SDS011;11484;50.858;4.384;2023-06-22T03:09:01;5.53;;;3.83;;
22634;SDS011;11484;50.858;4.384;2023-06-22T03:11:29;7.32;;;4.15;;
22634;SDS011;11484;50.858;4.384;2023-06-22T03:13:56;7.88;;;4.47;;
22634;SDS011;11484;50.858;4.384;2023-06-22T03:16:21;7.32;;;4.32;;
22634;SDS011;11484;50.858;4.384;2023-06-22T03:18:47;6.07;;;3.85;;
22634;SDS011;11484;50.858;4.384;2023-06-22T03:21:13;7.65;;;4.05;;
22634;SDS011;11484;50.858;4.384;2023-06-22T03:23:40;7.00;;;4.22;;
22634;SDS011;11484;50.858;4.384;2023-06-22T03:26:06;5.35;;;3.55;;
22634;SDS011;11484;50.858;4.384;2023-06-22T03:28:33;6.68;;;4.13;;
22634;SDS011;11484;50.858;4.384;2023-06-22T03:30:59;11.10;;;4.65;;
22634;SDS011;11484;50.858;4.384;2023-06-22T03:33:24;7.78;;;4.47;;
22634;SDS011;11484;50.858;4.384;2023-06-22T03:35:50;6.88;;;4.60;;
22634;SDS011;11484;50.858;4.384;2023-06-22T03:38:16;7.13;;;5.03;;
22634;SDS011;11484;50.858;4.384;2023-06-22T03:40:42;9.43;;;4.97;;
22634;SDS011;11484;50.858;4.384;2023-06-22T03:43:08;8.00;;;4.68;;
22634;SDS011;11484;50.858;4.384;2023-06-22T03:45:34;6.90;;;5.25;;
22634;SDS011;11484;50.858;4.384;2023-06-22T03:48:00;7.50;;;5.30;;
22634;SDS011;11484;50.858;4.384;2023-06-22T03:50:26;12.50;;;4.47;;
22634;SDS011;11484;50.858;4.384;2023-06-22T03:52:52;6.25;;;4.57;;
22634;SDS011;11484;50.858;4.384;2023-06-22T03:55:19;8.65;;;5.00;;
22634;SDS011;11484;50.858;4.384;2023-06-22T03:57:45;7.95;;;4.57;;
22634;SDS011;11484;50.858;4.384;2023-06-22T04:00:11;8.05;;;4.88;;
22634;SDS011;11484;50.858;4.384;2023-06-22T04:02:38;9.27;;;4.60;;
22634;SDS011;11484;50.858;4.384;2023-06-22T04:05:06;8.70;;;5.55;;
22634;SDS011;11484;50.858;4.384;2023-06-22T04:07:33;8.10;;;5.40;;
22634;SDS011;11484;50.858;4.384;2023-06-22T04:09:59;7.18;;;4.88;;
22634;SDS011;11484;50.858;4.384;2023-06-22T04:12:25;8.95;;;5.47;;
22634;SDS011;11484;50.858;4.384;2023-06-22T04:14:51;7.85;;;5.13;;
22634;SDS011;11484;50.858;4.384;2023-06-22T04:17:16;7.75;;;5.20;;
22634;SDS011;11484;50.858;4.384;2023-06-22T04:19:42;8.20;;;5.80;;
22634;SDS011;11484;50.858;4.384;2023-06-22T04:22:08;7.97;;;5.63;;
22634;SDS011;11484;50.858;4.384;2023-06-22T04:24:35;8.75;;;6.20;;
22634;SDS011;11484;50.858;4.384;2023-06-22T04:27:00;9.07;;;6.00;;
22634;SDS011;11484;50.858;4.384;2023-06-22T04:29:28;8.15;;;5.82;;
22634;SDS011;11484;50.858;4.384;2023-06-22T04:31:55;10.13;;;6.32;;
22634;SDS011;11484;50.858;4.384;2023-06-22T04:34:23;9.05;;;6.05;;
22634;SDS011;11484;50.858;4.384;2023-06-22T04:36:51;10.20;;;6.78;;
22634;SDS011;11484;50.858;4.384;2023-06-22T04:39:17;9.20;;;6.47;;
22634;SDS011;11484;50.858;4.384;2023-06-22T04:41:44;10.13;;;7.32;;
22634;SDS011;11484;50.858;4.384;2023-06-22T04:44:10;13.32;;;8.02;;
22634;SDS011;11484;50.858;4.384;2023-06-22T04:46:36;10.40;;;7.65;;
22634;SDS011;11484;50.858;4.384;2023-06-22T04:51:43;14.25;;;7.55;;
22634;SDS011;11484;50.858;4.384;2023-06-22T04:54:09;12.55;;;7.80;;
22634;SDS011;11484;50.858;4.384;2023-06-22T04:56:35;13.18;;;7.72;;
22634;SDS011;11484;50.858;4.384;2023-06-22T04:59:01;10.55;;;6.75;;
22634;SDS011;11484;50.858;4.384;2023-06-22T05:01:28;12.48;;;7.43;;
22634;SDS011;11484;50.858;4.384;2023-06-22T05:03:55;11.20;;;6.93;;
22634;SDS011;11484;50.858;4.384;2023-06-22T05:06:22;9.43;;;6.60;;
22634;SDS011;11484;50.858;4.384;2023-06-22T05:08:55;13.20;;;8.00;;
22634;SDS011;11484;50.858;4.384;2023-06-22T05:11:23;11.85;;;7.78;;
22634;SDS011;11484;50.858;4.384;2023-06-22T05:13:49;12.05;;;8.07;;
22634;SDS011;11484;50.858;4.384;2023-06-22T05:16:15;11.23;;;7.47;;
22634;SDS011;11484;50.858;4.384;2023-06-22T05:18:41;15.20;;;7.68;;
22634;SDS011;11484;50.858;4.384;2023-06-22T05:21:06;11.68;;;8.43;;
22634;SDS011;11484;50.858;4.384;2023-06-22T05:23:32;12.48;;;8.57;;
22634;SDS011;11484;50.858;4.384;2023-06-22T05:25:58;10.35;;;7.65;;
22634;SDS011;11484;50.858;4.384;2023-06-22T05:28:23;11.32;;;7.60;;
22634;SDS011;11484;50.858;4.384;2023-06-22T05:30:49;13.90;;;8.75;;
22634;SDS011;11484;50.858;4.384;2023-06-22T05:33:15;11.73;;;7.60;;
22634;SDS011;11484;50.858;4.384;2023-06-22T05:35:40;10.10;;;7.68;;
22634;SDS011;11484;50.858;4.384;2023-06-22T05:38:07;13.02;;;10.05;;
22634;SDS011;11484;50.858;4.384;2023-06-22T05:40:33;14.45;;;10.10;;
22634;SDS011;11484;50.858;4.384;2023-06-22T05:42:58;12.00;;;8.30;;
22634;SDS011;11484;50.858;4.384;2023-06-22T05:45:26;12.52;;;8.75;;
22634;SDS011;11484;50.858;4.384;2023-06-22T05:47:52;13.73;;;10.00;;
22634;SDS011;11484;50.858;4.384;2023-06-22T05:50:18;13.85;;;9.75;;
22634;SDS011;11484;50.858;4.384;2023-06-22T05:52:43;12.68;;;9.88;;
22634;SDS011;11484;50.858;4.384;2023-06-22T05:55:09;15.40;;;10.73;;
22634;SDS011;11484;50.858;4.384;2023-06-22T05:57:38;15.35;;;10.48;;
22634;SDS011;11484;50.858;4.384;2023-06-22T06:00:05;19.20;;;13.60;;
22634;SDS011;11484;50.858;4.384;2023-06-22T06:02:35;20.70;;;11.60;;
22634;SDS011;11484;50.858;4.384;2023-06-22T06:05:01;22.75;;;11.68;;
22634;SDS011;11484;50.858;4.384;2023-06-22T06:07:28;23.67;;;12.52;;
22634;SDS011;11484;50.858;4.384;2023-06-22T06:09:54;20.90;;;12.68;;
22634;SDS011;11484;50.858;4.384;2023-06-22T06:12:20;17.38;;;11.57;;
22634;SDS011;11484;50.858;4.384;2023-06-22T06:14:46;20.38;;;11.30;;
22634;SDS011;11484;50.858;4.384;2023-06-22T06:17:13;17.02;;;12.45;;
22634;SDS011;11484;50.858;4.384;2023-06-22T06:19:38;17.13;;;12.13;;
22634;SDS011;11484;50.858;4.384;2023-06-22T06:22:04;16.42;;;11.52;;
22634;SDS011;11484;50.858;4.384;2023-06-22T06:24:30;16.38;;;12.07;;
22634;SDS011;11484;50.858;4.384;2023-06-22T06:26:55;17.85;;;12.82;;
22634;SDS011;11484;50.858;4.384;2023-06-22T06:29:22;21.85;;;12.80;;
22634;SDS011;11484;50.858;4.384;2023-06-22T06:31:48;18.23;;;12.57;;
22634;SDS011;11484;50.858;4.384;2023-06-22T06:34:14;18.13;;;13.00;;
22634;SDS011;11484;50.858;4.384;2023-06-22T06:36:40;16.75;;;12.27;;
22634;SDS011;11484;50.858;4.384;2023-06-22T06:39:05;19.38;;;12.35;;
22634;SDS011;11484;50.858;4.384;2023-06-22T06:41:31;18.23;;;12.45;;
22634;SDS011;11484;50.858;4.384;2023-06-22T06:43:57;18.48;;;12.40;;
22634;SDS011;11484;50.858;4.384;2023-06-22T06:46:23;18.55;;;12.50;;
22634;SDS011;11484;50.858;4.384;2023-06-22T06:48:48;19.38;;;12.40;;
22634;SDS011;11484;50.858;4.384;2023-06-22T06:51:14;18.20;;;12.88;;
22634;SDS011;11484;50.858;4.384;2023-06-22T06:53:39;17.30;;;12.65;;
22634;SDS011;11484;50.858;4.384;2023-06-22T06:56:05;19.30;;;12.38;;
22634;SDS011;11484;50.858;4.384;2023-06-22T06:58:31;17.75;;;12.48;;
22634;SDS011;11484;50.858;4.384;2023-06-22T07:00:57;19.42;;;12.60;;
22634;SDS011;11484;50.858;4.384;2023-06-22T07:03:23;19.10;;;12.02;;
22634;SDS011;11484;50.858;4.384;2023-06-22T07:05:49;16.00;;;12.70;;
22634;SDS011;11484;50.858;4.384;2023-06-22T07:08:14;17.67;;;13.77;;
22634;SDS011;11484;50.858;4.384;2023-06-22T07:10:40;18.60;;;12.90;;
22634;SDS011;11484;50.858;4.384;2023-06-22T07:13:06;17.30;;;12.90;;
22634;SDS011;11484;50.858;4.384;2023-06-22T07:15:31;17.55;;;12.13;;
22634;SDS011;11484;50.858;4.384;2023-06-22T07:17:57;15.70;;;12.10;;
22634;SDS011;11484;50.858;4.384;2023-06-22T07:20:23;16.40;;;12.90;;
22634;SDS011;11484;50.858;4.384;2023-06-22T07:22:48;18.52;;;12.45;;
22634;SDS011;11484;50.858;4.384;2023-06-22T07:25:14;19.70;;;13.43;;
22634;SDS011;11484;50.858;4.384;2023-06-22T07:27:43;18.27;;;13.75;;
22634;SDS011;11484;50.858;4.384;2023-06-22T07:30:11;16.90;;;12.05;;
22634;SDS011;11484;50.858;4.384;2023-06-22T07:32:37;17.52;;;12.57;;
22634;SDS011;11484;50.858;4.384;2023-06-22T07:35:03;18.02;;;13.10;;
22634;SDS011;11484;50.858;4.384;2023-06-22T07:37:29;16.40;;;12.45;;
22634;SDS011;11484;50.858;4.384;2023-06-22T07:39:55;18.58;;;12.43;;
22634;SDS011;11484;50.858;4.384;2023-06-22T07:42:25;17.20;;;12.45;;
22634;SDS011;11484;50.858;4.384;2023-06-22T07:44:51;16.88;;;12.68;;
22634;SDS011;11484;50.858;4.384;2023-06-22T07:47:17;18.05;;;12.65;;
22634;SDS011;11484;50.858;4.384;2023-06-22T07:49:44;15.07;;;11.82;;
22634;SDS011;11484;50.858;4.384;2023-06-22T07:52:10;17.17;;;11.88;;
22634;SDS011;11484;50.858;4.384;2023-06-22T07:54:36;14.32;;;11.68;;
22634;SDS011;11484;50.858;4.384;2023-06-22T07:57:02;16.63;;;12.55;;
22634;SDS011;11484;50.858;4.384;2023-06-22T07:59:28;15.90;;;11.52;;
22634;SDS011;11484;50.858;4.384;2023-06-22T08:01:54;16.08;;;11.95;;
22634;SDS011;11484;50.858;4.384;2023-06-22T08:04:20;16.10;;;11.13;;
22634;SDS011;11484;50.858;4.384;2023-06-22T08:06:46;15.18;;;12.32;;
22634;SDS011;11484;50.858;4.384;2023-06-22T08:09:12;17.60;;;11.77;;
22634;SDS011;11484;50.858;4.384;2023-06-22T08:11:37;17.02;;;12.15;;
22634;SDS011;11484;50.858;4.384;2023-06-22T08:14:03;15.60;;;11.70;;
22634;SDS011;11484;50.858;4.384;2023-06-22T08:16:28;18.70;;;13.07;;
22634;SDS011;11484;50.858;4.384;2023-06-22T08:18:54;18.23;;;11.98;;
22634;SDS011;11484;50.858;4.384;2023-06-22T08:21:20;15.73;;;12.05;;
22634;SDS011;11484;50.858;4.384;2023-06-22T08:23:46;16.95;;;12.30;;
22634;SDS011;11484;50.858;4.384;2023-06-22T08:26:11;17.48;;;11.98;;
22634;SDS011;11484;50.858;4.384;2023-06-22T08:28:37;16.33;;;12.63;;
22634;SDS011;11484;50.858;4.384;2023-06-22T08:31:05;16.48;;;12.57;;
22634;SDS011;11484;50.858;4.384;2023-06-22T08:33:31;14.40;;;12.00;;
22634;SDS011;11484;50.858;4.384;2023-06-22T08:35:58;15.45;;;11.75;;
22634;SDS011;11484;50.858;4.384;2023-06-22T08:38:25;15.77;;;12.52;;
22634;SDS011;11484;50.858;4.384;2023-06-22T08:40:51;16.85;;;12.95;;
22634;SDS011;11484;50.858;4.384;2023-06-22T08:43:16;16.27;;;11.93;;
22634;SDS011;11484;50.858;4.384;2023-06-22T08:45:42;16.98;;;12.00;;
22634;SDS011;11484;50.858;4.384;2023-06-22T08:48:08;15.65;;;12.50;;
22634;SDS011;11484;50.858;4.384;2023-06-22T08:50:33;18.15;;;12.95;;
22634;SDS011;11484;50.858;4.384;2023-06-22T08:52:59;14.75;;;12.15;;
22634;SDS011;11484;50.858;4.384;2023-06-22T08:55:25;20.13;;;12.25;;
22634;SDS011;11484;50.858;4.384;2023-06-22T08:57:50;18.15;;;13.32;;
22634;SDS011;11484;50.858;4.384;2023-06-22T09:00:16;14.52;;;12.10;;
22634;SDS011;11484;50.858;4.384;2023-06-22T09:02:44;16.38;;;12.60;;
22634;SDS011;11484;50.858;4.384;2023-06-22T09:05:13;15.20;;;11.82;;
22634;SDS011;11484;50.858;4.384;2023-06-22T09:07:39;16.02;;;12.02;;
22634;SDS011;11484;50.858;4.384;2023-06-22T09:10:05;14.07;;;11.68;;
22634;SDS011;11484;50.858;4.384;2023-06-22T09:12:32;13.40;;;10.38;;
22634;SDS011;11484;50.858;4.384;2023-06-22T09:15:01;16.30;;;11.18;;
22634;SDS011;11484;50.858;4.384;2023-06-22T09:17:27;13.13;;;10.60;;
22634;SDS011;11484;50.858;4.384;2023-06-22T09:19:53;14.25;;;11.73;;
22634;SDS011;11484;50.858;4.384;2023-06-22T09:22:19;15.15;;;12.02;;
22634;SDS011;11484;50.858;4.384;2023-06-22T09:24:45;14.50;;;12.15;;
22634;SDS011;11484;50.858;4.384;2023-06-22T09:27:11;16.30;;;11.77;;
22634;SDS011;11484;50.858;4.384;2023-06-22T09:29:37;14.07;;;11.45;;
22634;SDS011;11484;50.858;4.384;2023-06-22T09:32:02;17.83;;;11.82;;
22634;SDS011;11484;50.858;4.384;2023-06-22T09:34:28;13.27;;;11.00;;
22634;SDS011;11484;50.858;4.384;2023-06-22T09:36:56;16.48;;;11.40;;
22634;SDS011;11484;50.858;4.384;2023-06-22T09:39:22;85.38;;;67.13;;
22634;SDS011;11484;50.858;4.384;2023-06-22T09:41:48;20.73;;;14.27;;
22634;SDS011;11484;50.858;4.384;2023-06-22T09:44:13;21.73;;;13.82;;
22634;SDS011;11484;50.858;4.384;2023-06-22T09:46:39;18.42;;;13.45;;
22634;SDS011;11484;50.858;4.384;2023-06-22T09:49:05;18.65;;;13.15;;
22634;SDS011;11484;50.858;4.384;2023-06-22T09:51:30;18.55;;;14.32;;
22634;SDS011;11484;50.858;4.384;2023-06-22T09:53:56;16.33;;;12.40;;
22634;SDS011;11484;50.858;4.384;2023-06-22T09:56:23;21.20;;;12.93;;
22634;SDS011;11484;50.858;4.384;2023-06-22T09:58:49;33.50;;;16.00;;
22634;SDS011;11484;50.858;4.384;2023-06-22T10:01:20;21.75;;;14.38;;
22634;SDS011;11484;50.858;4.384;2023-06-22T10:03:46;22.13;;;15.00;;
22634;SDS011;11484;50.858;4.384;2023-06-22T10:06:12;20.90;;;16.75;;
22634;SDS011;11484;50.858;4.384;2023-06-22T10:08:37;27.35;;;18.67;;
22634;SDS011;11484;50.858;4.384;2023-06-22T10:11:04;24.67;;;18.52;;
22634;SDS011;11484;50.858;4.384;2023-06-22T10:13:30;33.45;;;21.45;;
22634;SDS011;11484;50.858;4.384;2023-06-22T10:15:56;30.02;;;21.40;;
22634;SDS011;11484;50.858;4.384;2023-06-22T10:18:22;29.70;;;21.25;;
22634;SDS011;11484;50.858;4.384;2023-06-22T10:20:48;29.70;;;20.80;;
22634;SDS011;11484;50.858;4.384;2023-06-22T10:23:18;27.95;;;19.98;;
22634;SDS011;11484;50.858;4.384;2023-06-22T10:25:44;30.40;;;21.38;;
22634;SDS011;11484;50.858;4.384;2023-06-22T10:28:10;28.50;;;21.45;;
22634;SDS011;11484;50.858;4.384;2023-06-22T10:30:37;30.20;;;22.30;;
22634;SDS011;11484;50.858;4.384;2023-06-22T10:33:06;31.55;;;22.73;;
22634;SDS011;11484;50.858;4.384;2023-06-22T10:35:35;32.45;;;22.15;;
22634;SDS011;11484;50.858;4.384;2023-06-22T10:38:02;32.00;;;23.67;;
22634;SDS011;11484;50.858;4.384;2023-06-22T10:40:28;37.15;;;23.77;;
22634;SDS011;11484;50.858;4.384;2023-06-22T10:42:54;33.65;;;24.58;;
22634;SDS011;11484;50.858;4.384;2023-06-22T10:45:21;42.40;;;25.73;;
22634;SDS011;11484;50.858;4.384;2023-06-22T10:47:47;42.13;;;27.23;;
22634;SDS011;11484;50.858;4.384;2023-06-22T10:50:13;36.42;;;26.48;;
22634;SDS011;11484;50.858;4.384;2023-06-22T10:52:40;42.28;;;28.23;;
22634;SDS011;11484;50.858;4.384;2023-06-22T10:55:09;40.03;;;29.65;;
22634;SDS011;11484;50.858;4.384;2023-06-22T10:57:35;43.17;;;29.33;;
22634;SDS011;11484;50.858;4.384;2023-06-22T11:00:01;45.13;;;30.58;;
22634;SDS011;11484;50.858;4.384;2023-06-22T11:02:30;48.28;;;32.15;;
22634;SDS011;11484;50.858;4.384;2023-06-22T11:04:56;45.13;;;31.40;;
22634;SDS011;11484;50.858;4.384;2023-06-22T11:07:25;44.42;;;32.28;;
22634;SDS011;11484;50.858;4.384;2023-06-22T11:09:52;45.42;;;30.33;;
22634;SDS011;11484;50.858;4.384;2023-06-22T11:12:18;44.65;;;30.52;;
22634;SDS011;11484;50.858;4.384;2023-06-22T11:14:43;46.88;;;32.03;;
22634;SDS011;11484;50.858;4.384;2023-06-22T11:17:09;41.55;;;29.60;;
22634;SDS011;11484;50.858;4.384;2023-06-22T11:19:35;47.30;;;31.27;;
22634;SDS011;11484;50.858;4.384;2023-06-22T11:22:01;40.08;;;28.70;;
22634;SDS011;11484;50.858;4.384;2023-06-22T11:24:27;42.63;;;30.65;;
22634;SDS011;11484;50.858;4.384;2023-06-22T11:26:53;44.78;;;30.92;;
22634;SDS011;11484;50.858;4.384;2023-06-22T11:29:18;44.00;;;30.20;;
22634;SDS011;11484;50.858;4.384;2023-06-22T11:31:44;44.08;;;31.17;;
22634;SDS011;11484;50.858;4.384;2023-06-22T11:34:10;39.80;;;27.80;;
22634;SDS011;11484;50.858;4.384;2023-06-22T11:36:36;38.42;;;28.10;;
22634;SDS011;11484;50.858;4.384;2023-06-22T11:39:01;41.08;;;27.63;;
22634;SDS011;11484;50.858;4.384;2023-06-22T11:41:27;37.10;;;26.00;;
22634;SDS011;11484;50.858;4.384;2023-06-22T11:43:53;38.58;;;26.77;;
22634;SDS011;11484;50.858;4.384;2023-06-22T11:46:18;36.55;;;26.10;;
22634;SDS011;11484;50.858;4.384;2023-06-22T11:48:44;35.05;;;24.15;;
22634;SDS011;11484;50.858;4.384;2023-06-22T11:51:10;38.55;;;26.48;;
22634;SDS011;11484;50.858;4.384;2023-06-22T11:53:36;29.75;;;22.88;;
22634;SDS011;11484;50.858;4.384;2023-06-22T11:56:02;31.27;;;23.35;;
22634;SDS011;11484;50.858;4.384;2023-06-22T11:58:27;30.10;;;22.90;;
22634;SDS011;11484;50.858;4.384;2023-06-22T12:00:53;31.02;;;22.98;;
22634;SDS011;11484;50.858;4.384;2023-06-22T12:03:19;34.63;;;23.42;;
22634;SDS011;11484;50.858;4.384;2023-06-22T12:05:46;35.92;;;24.45;;
22634;SDS011;11484;50.858;4.384;2023-06-22T12:08:12;35.95;;;24.52;;
22634;SDS011;11484;50.858;4.384;2023-06-22T12:10:38;30.95;;;23.98;;
22634;SDS011;11484;50.858;4.384;2023-06-22T12:13:04;33.47;;;23.83;;
22634;SDS011;11484;50.858;4.384;2023-06-22T12:15:30;35.55;;;26.27;;
22634;SDS011;11484;50.858;4.384;2023-06-22T12:17:56;34.72;;;24.80;;
22634;SDS011;11484;50.858;4.384;2023-06-22T12:20:21;35.30;;;25.98;;
22634;SDS011;11484;50.858;4.384;2023-06-22T12:22:47;33.97;;;25.58;;
22634;SDS011;11484;50.858;4.384;2023-06-22T12:25:13;33.83;;;25.35;;
22634;SDS011;11484;50.858;4.384;2023-06-22T12:27:38;38.38;;;25.10;;
22634;SDS011;11484;50.858;4.384;2023-06-22T12:30:04;31.25;;;24.48;;
22634;SDS011;11484;50.858;4.384;2023-06-22T12:32:30;37.33;;;25.48;;
22634;SDS011;11484;50.858;4.384;2023-06-22T12:34:56;37.58;;;26.92;;
22634;SDS011;11484;50.858;4.384;2023-06-22T12:37:22;34.85;;;25.55;;
22634;SDS011;11484;50.858;4.384;2023-06-22T12:39:48;34.00;;;24.73;;
22634;SDS011;11484;50.858;4.384;2023-06-22T12:42:15;35.15;;;25.83;;
22634;SDS011;11484;50.858;4.384;2023-06-22T12:44:41;36.63;;;26.08;;
22634;SDS011;11484;50.858;4.384;2023-06-22T12:47:07;38.22;;;27.13;;
22634;SDS011;11484;50.858;4.384;2023-06-22T12:49:36;35.72;;;27.33;;
22634;SDS011;11484;50.858;4.384;2023-06-22T12:52:02;39.42;;;28.25;;
22634;SDS011;11484;50.858;4.384;2023-06-22T12:54:28;40.60;;;28.30;;
22634;SDS011;11484;50.858;4.384;2023-06-22T12:56:57;38.90;;;29.20;;
22634;SDS011;11484;50.858;4.384;2023-06-22T12:59:22;41.40;;;29.45;;
22634;SDS011;11484;50.858;4.384;2023-06-22T13:01:48;42.20;;;30.42;;
22634;SDS011;11484;50.858;4.384;2023-06-22T13:04:14;40.63;;;30.02;;
22634;SDS011;11484;50.858;4.384;2023-06-22T13:06:40;42.80;;;30.55;;
22634;SDS011;11484;50.858;4.384;2023-06-22T13:09:06;43.58;;;30.90;;
22634;SDS011;11484;50.858;4.384;2023-06-22T13:11:33;44.70;;;31.85;;
22634;SDS011;11484;50.858;4.384;2023-06-22T13:13:59;47.72;;;32.90;;
22634;SDS011;11484;50.858;4.384;2023-06-22T13:16:25;45.13;;;31.40;;
22634;SDS011;11484;50.858;4.384;2023-06-22T13:18:50;46.35;;;32.95;;
22634;SDS011;11484;50.858;4.384;2023-06-22T13:21:16;47.35;;;32.70;;
22634;SDS011;11484;50.858;4.384;2023-06-22T13:23:41;48.33;;;33.88;;
22634;SDS011;11484;50.858;4.384;2023-06-22T13:26:07;50.60;;;35.55;;
22634;SDS011;11484;50.858;4.384;2023-06-22T13:28:33;50.42;;;35.03;;
22634;SDS011;11484;50.858;4.384;2023-06-22T13:30:58;51.53;;;35.17;;
22634;SDS011;11484;50.858;4.384;2023-06-22T13:33:24;45.58;;;33.10;;
22634;SDS011;11484;50.858;4.384;2023-06-22T13:35:50;48.13;;;33.13;;
22634;SDS011;11484;50.858;4.384;2023-06-22T13:38:15;44.15;;;31.90;;
22634;SDS011;11484;50.858;4.384;2023-06-22T13:40:42;42.30;;;30.77;;
22634;SDS011;11484;50.858;4.384;2023-06-22T13:43:08;43.97;;;30.25;;
22634;SDS011;11484;50.858;4.384;2023-06-22T13:45:34;45.67;;;30.73;;
22634;SDS011;11484;50.858;4.384;2023-06-22T13:48:00;42.05;;;30.55;;
22634;SDS011;11484;50.858;4.384;2023-06-22T13:50:25;42.03;;;30.58;;
22634;SDS011;11484;50.858;4.384;2023-06-22T13:52:51;42.92;;;31.13;;
22634;SDS011;11484;50.858;4.384;2023-06-22T13:55:17;42.17;;;31.27;;
22634;SDS011;11484;50.858;4.384;2023-06-22T13:57:45;43.10;;;30.73;;
22634;SDS011;11484;50.858;4.384;2023-06-22T14:00:10;44.97;;;29.83;;
22634;SDS011;11484;50.858;4.384;2023-06-22T14:02:39;46.65;;;33.03;;
22634;SDS011;11484;50.858;4.384;2023-06-22T14:05:06;43.85;;;31.85;;
22634;SDS011;11484;50.858;4.384;2023-06-22T14:07:32;48.88;;;34.00;;
22634;SDS011;11484;50.858;4.384;2023-06-22T14:09:58;44.38;;;30.48;;
22634;SDS011;11484;50.858;4.384;2023-06-22T14:12:24;44.88;;;32.25;;
22634;SDS011;11484;50.858;4.384;2023-06-22T14:14:50;41.42;;;31.15;;
22634;SDS011;11484;50.858;4.384;2023-06-22T14:17:16;43.90;;;32.13;;
22634;SDS011;11484;50.858;4.384;2023-06-22T14:19:41;41.20;;;30.48;;
22634;SDS011;11484;50.858;4.384;2023-06-22T14:22:07;45.00;;;32.78;;
22634;SDS011;11484;50.858;4.384;2023-06-22T14:24:33;41.05;;;30.73;;
22634;SDS011;11484;50.858;4.384;2023-06-22T14:26:59;43.97;;;31.58;;
22634;SDS011;11484;50.858;4.384;2023-06-22T14:29:27;43.65;;;31.50;;
22634;SDS011;11484;50.858;4.384;2023-06-22T14:31:53;44.85;;;31.92;;